Time;durP1;ratioP1;P1;durP2;ratioP2;P2;SDS_P1;SDS_P2;PMS_P1;PMS_P2;Temp;Humidity;BMP_temperature;BMP_pressure;BME280_temperature;BME280_humidity;BME280_pressure;Samples;Min_cycle;Max_cycle;Signal;HPM_P1;HPM_P2
2022/05/11 00:01:56;;;;;;;;;;;25.20;42.00;;;;;;5051434;28;20368;-78
2022/05/11 00:04:24;;;;;;;;;;;25.10;42.00;;;;;;5051092;28;19924;-78
2022/05/11 00:06:51;;;;;;;;;;;25.10;42.00;;;;;;5068612;28;20297;-78
2022/05/11 00:09:18;;;;;;;;;;;25.10;42.00;;;;;;5070217;28;19977;-79
2022/05/11 00:11:45;;;;;;;;;;;25.10;42.00;;;;;;5071209;28;19932;-79
2022/05/11 00:14:12;;;;;;;;;;;25.10;42.00;;;;;;5070242;28;19924;-78
2022/05/11 00:16:40;;;;;;;;;;;25.10;42.00;;;;;;5071926;28;19982;-79
2022/05/11 00:19:07;;;;;;;;;;;25.10;42.00;;;;;;5079333;28;19928;-79
2022/05/11 00:21:34;;;;;;;;;;;25.10;42.00;;;;;;5089290;28;19932;-78
2022/05/11 00:24:02;;;;;;;;;;;25.10;42.20;;;;;;5089524;28;19924;-78
2022/05/11 00:26:29;;;;;;;;;;;25.10;42.00;;;;;;5074342;28;20001;-78
2022/05/11 00:28:56;;;;;;;;;;;25.10;42.10;;;;;;5069406;28;19932;-78
2022/05/11 00:31:23;;;;;;;;;;;25.10;42.70;;;;;;5068182;28;20198;-78
2022/05/11 00:33:51;;;;;;;;;;;25.00;42.10;;;;;;5068811;28;20314;-78
2022/05/11 00:36:18;;;;;;;;;;;25.00;42.10;;;;;;5068321;28;20272;-78
2022/05/11 00:38:47;;;;;;;;;;;25.00;42.20;;;;;;5069178;28;20245;-78
2022/05/11 00:41:14;;;;;;;;;;;25.00;42.20;;;;;;5068892;28;19928;-80
2022/05/11 00:43:55;;;;;;;;;;;25.00;42.20;;;;;;5069029;28;19925;-79
2022/05/11 00:46:37;;;;;;;;;;;25.00;42.20;;;;;;5069043;28;19924;-79
2022/05/11 00:51:58;;;;;;;;;;;25.00;42.30;;;;;;5063552;28;19924;-78
2022/05/11 00:54:26;;;;;;;;;;;24.90;42.30;;;;;;5068083;28;19929;-79
2022/05/11 00:56:55;;;;;;;;;;;24.90;42.30;;;;;;5066978;28;19929;-79
2022/05/11 00:59:27;;;;;;;;;;;24.90;42.30;;;;;;5067855;28;20398;-79
2022/05/11 01:01:55;;;;;;;;;;;24.90;42.30;;;;;;5067491;28;19936;-78
2022/05/11 01:04:23;;;;;;;;;;;24.90;42.30;;;;;;5068033;28;19924;-78
2022/05/11 01:06:50;;;;;;;;;;;24.90;42.20;;;;;;5067334;28;20360;-78
2022/05/11 01:09:17;;;;;;;;;;;24.90;42.20;;;;;;5068142;28;19924;-79
2022/05/11 01:11:47;;;;;;;;;;;24.90;42.20;;;;;;5067331;28;21625;-79
2022/05/11 01:14:15;;;;;;;;;;;25.00;42.20;;;;;;5066842;28;20376;-78
2022/05/11 01:16:42;;;;;;;;;;;24.90;42.20;;;;;;5067546;28;20419;-79
2022/05/11 01:19:14;;;;;;;;;;;24.90;42.10;;;;;;5067178;28;19931;-79
2022/05/11 01:21:52;;;;;;;;;;;24.90;42.20;;;;;;5067611;28;19932;-79
2022/05/11 01:24:23;;;;;;;;;;;24.90;42.20;;;;;;5063847;28;20346;-78
2022/05/11 01:26:50;;;;;;;;;;;24.90;42.10;;;;;;5067096;28;19947;-78
2022/05/11 01:29:17;;;;;;;;;;;24.90;42.10;;;;;;5068102;28;20402;-78
2022/05/11 01:31:44;;;;;;;;;;;25.00;42.20;;;;;;5067212;28;19925;-78
2022/05/11 01:34:14;;;;;;;;;;;24.90;42.20;;;;;;5067988;28;19924;-78
2022/05/11 01:36:41;;;;;;;;;;;24.90;42.20;;;;;;5067311;28;20481;-79
2022/05/11 01:39:09;;;;;;;;;;;24.90;42.20;;;;;;5067672;28;19978;-79
2022/05/11 01:41:38;;;;;;;;;;;24.90;42.20;;;;;;5067538;28;19925;-79
2022/05/11 01:44:14;;;;;;;;;;;24.90;42.20;;;;;;5066438;28;19986;-78
2022/05/11 01:46:44;;;;;;;;;;;24.90;42.20;;;;;;5066926;28;19986;-79
2022/05/11 01:49:11;;;;;;;;;;;24.90;42.20;;;;;;5067848;28;20420;-79
2022/05/11 01:51:38;;;;;;;;;;;24.90;42.20;;;;;;5066308;28;19929;-79
2022/05/11 01:54:05;;;;;;;;;;;24.90;42.20;;;;;;5065920;28;19982;-79
2022/05/11 01:56:32;;;;;;;;;;;24.90;42.20;;;;;;5064821;28;19925;-79
2022/05/11 01:58:59;;;;;;;;;;;24.90;42.20;;;;;;5067523;28;19925;-79
2022/05/11 02:01:27;;;;;;;;;;;24.90;42.20;;;;;;5066996;28;19925;-79
2022/05/11 02:03:55;;;;;;;;;;;24.90;42.30;;;;;;5066053;28;19929;-78
2022/05/11 02:09:09;;;;;;;;;;;24.90;42.30;;;;;;5066753;28;19925;-79
2022/05/11 02:11:36;;;;;;;;;;;24.80;42.30;;;;;;5067468;28;20443;-79
2022/05/11 02:14:03;;;;;;;;;;;24.80;42.30;;;;;;5067583;28;19928;-78
2022/05/11 02:16:30;;;;;;;;;;;24.80;42.30;;;;;;5066857;28;20446;-79
2022/05/11 02:18:57;;;;;;;;;;;24.80;42.30;;;;;;5076213;28;20256;-78
2022/05/11 02:21:24;;;;;;;;;;;24.80;42.30;;;;;;5087338;28;19924;-79
2022/05/11 02:23:54;;;;;;;;;;;24.80;42.30;;;;;;5087705;28;19931;-78
2022/05/11 02:26:21;;;;;;;;;;;24.80;42.30;;;;;;5082658;28;19928;-78
2022/05/11 02:28:49;;;;;;;;;;;24.80;42.40;;;;;;5087090;28;19924;-78
2022/05/11 02:31:16;;;;;;;;;;;24.80;42.40;;;;;;5086536;28;20269;-78
2022/05/11 02:33:43;;;;;;;;;;;24.80;42.40;;;;;;5085972;28;19924;-78
2022/05/11 02:36:10;;;;;;;;;;;24.80;42.40;;;;;;5086404;28;19935;-78
2022/05/11 02:38:39;;;;;;;;;;;24.80;42.40;;;;;;5086022;28;19924;-79
2022/05/11 02:41:06;;;;;;;;;;;24.80;42.30;;;;;;5086532;28;19924;-79
2022/05/11 02:43:33;;;;;;;;;;;24.80;42.30;;;;;;5086445;28;19947;-79
2022/05/11 02:46:00;;;;;;;;;;;24.80;42.20;;;;;;5086688;28;19931;-78
2022/05/11 02:48:31;;;;;;;;;;;24.80;42.20;;;;;;5086396;28;19928;-78
2022/05/11 02:50:58;;;;;;;;;;;24.80;42.20;;;;;;5086724;28;19924;-79
2022/05/11 02:53:26;;;;;;;;;;;24.80;42.20;;;;;;5086158;28;19936;-79
2022/05/11 02:55:54;;;;;;;;;;;24.90;42.20;;;;;;5086681;28;19931;-78
2022/05/11 02:58:22;;;;;;;;;;;24.80;42.20;;;;;;5063810;28;20325;-78
2022/05/11 03:00:51;;;;;;;;;;;24.80;42.10;;;;;;5090330;28;20331;-78
2022/05/11 03:03:19;;;;;;;;;;;24.80;42.20;;;;;;5089908;28;19924;-77
2022/05/11 03:05:47;;;;;;;;;;;24.80;42.10;;;;;;5090344;28;19976;-78
2022/05/11 03:08:14;;;;;;;;;;;24.80;42.20;;;;;;5089605;28;20281;-78
2022/05/11 03:10:41;;;;;;;;;;;24.80;42.20;;;;;;5089610;28;19981;-79
2022/05/11 03:13:08;;;;;;;;;;;24.80;42.20;;;;;;5089768;28;19977;-78
2022/05/11 03:15:36;;;;;;;;;;;24.80;42.20;;;;;;5089837;28;20187;-79
2022/05/11 03:18:03;;;;;;;;;;;24.80;42.20;;;;;;5088711;28;19924;-78
2022/05/11 03:20:30;;;;;;;;;;;24.80;42.20;;;;;;5069226;28;19978;-78
2022/05/11 03:22:57;;;;;;;;;;;24.80;42.20;;;;;;5069090;28;20137;-79
2022/05/11 03:25:25;;;;;;;;;;;24.80;42.20;;;;;;5069859;28;19924;-79
2022/05/11 03:27:53;;;;;;;;;;;24.80;42.20;;;;;;5069115;28;19990;-78
2022/05/11 03:30:20;;;;;;;;;;;24.80;42.20;;;;;;5038939;28;19925;-78
2022/05/11 03:35:35;;;;;;;;;;;24.70;42.20;;;;;;5057839;28;20392;-79
2022/05/11 03:38:03;;;;;;;;;;;24.80;42.20;;;;;;5056732;28;20304;-78
2022/05/11 03:40:30;;;;;;;;;;;24.80;42.20;;;;;;5060362;28;19951;-78
2022/05/11 03:42:57;;;;;;;;;;;24.70;42.20;;;;;;5055618;28;20351;-78
2022/05/11 03:45:24;;;;;;;;;;;24.70;42.20;;;;;;5058532;28;19925;-79
2022/05/11 03:47:51;;;;;;;;;;;24.80;42.30;;;;;;5057595;28;19970;-77
2022/05/11 03:50:22;;;;;;;;;;;24.70;42.20;;;;;;5049269;28;20273;-77
2022/05/11 03:52:50;;;;;;;;;;;24.70;42.30;;;;;;5061014;28;19929;-78
2022/05/11 03:55:17;;;;;;;;;;;24.70;42.30;;;;;;5051405;28;19978;-78
2022/05/11 03:57:44;;;;;;;;;;;24.70;42.30;;;;;;5057836;28;19924;-78
2022/05/11 04:00:13;;;;;;;;;;;24.70;42.20;;;;;;5055046;28;19925;-77
2022/05/11 04:02:40;;;;;;;;;;;24.70;42.20;;;;;;5026204;28;19925;-77
2022/05/11 04:05:09;;;;;;;;;;;24.80;42.30;;;;;;5047515;28;20000;-78
2022/05/11 04:07:37;;;;;;;;;;;24.70;42.20;;;;;;5049056;28;19925;-77
2022/05/11 04:10:04;;;;;;;;;;;24.70;42.20;;;;;;5047436;28;19928;-77
2022/05/11 04:12:31;;;;;;;;;;;24.80;42.20;;;;;;5048127;28;20173;-78
2022/05/11 04:14:58;;;;;;;;;;;24.80;42.10;;;;;;5048239;28;20446;-78
2022/05/11 04:17:25;;;;;;;;;;;24.80;42.10;;;;;;5048690;28;19970;-79
2022/05/11 04:19:52;;;;;;;;;;;24.80;42.10;;;;;;5080546;28;20527;-78
2022/05/11 04:22:19;;;;;;;;;;;24.90;42.10;;;;;;5088236;28;19924;-78
2022/05/11 04:24:46;;;;;;;;;;;24.90;42.00;;;;;;5088936;28;20572;-78
2022/05/11 04:27:13;;;;;;;;;;;24.90;41.90;;;;;;5088893;28;20017;-78
2022/05/11 04:29:40;;;;;;;;;;;24.90;41.80;;;;;;5088955;28;19924;-78
2022/05/11 04:32:08;;;;;;;;;;;25.00;41.90;;;;;;5086811;28;19924;-78
2022/05/11 04:34:37;;;;;;;;;;;25.00;41.70;;;;;;5085500;28;19924;-78
2022/05/11 04:37:04;;;;;;;;;;;25.00;41.70;;;;;;5070453;28;19986;-78
2022/05/11 04:39:31;;;;;;;;;;;25.10;41.70;;;;;;5056273;28;20335;-79
2022/05/11 04:41:59;;;;;;;;;;;25.10;41.60;;;;;;5070234;28;19925;-78
2022/05/11 04:44:28;;;;;;;;;;;25.10;41.60;;;;;;5065696;28;19936;-78
2022/05/11 04:46:59;;;;;;;;;;;25.10;41.50;;;;;;5075701;28;19979;-79
2022/05/11 04:49:26;;;;;;;;;;;25.10;41.50;;;;;;5072222;28;20442;-78
2022/05/11 04:52:01;;;;;;;;;;;25.10;41.50;;;;;;5077417;28;20265;-80
2022/05/11 04:54:28;;;;;;;;;;;25.10;41.40;;;;;;5069416;28;20342;-78
2022/05/11 04:56:55;;;;;;;;;;;25.10;41.40;;;;;;5053632;28;19935;-79
2022/05/11 04:59:22;;;;;;;;;;;25.10;41.40;;;;;;5077164;28;19977;-78
2022/05/11 05:01:49;;;;;;;;;;;25.20;41.40;;;;;;5075651;28;19986;-77
2022/05/11 05:04:16;;;;;;;;;;;25.20;41.30;;;;;;5068815;28;20407;-77
2022/05/11 05:06:43;;;;;;;;;;;25.20;41.30;;;;;;5069866;28;19928;-77
2022/05/11 05:09:10;;;;;;;;;;;25.20;41.20;;;;;;5072783;28;19924;-78
2022/05/11 05:11:37;;;;;;;;;;;25.30;41.20;;;;;;5078898;28;19928;-79
2022/05/11 05:14:05;;;;;;;;;;;25.30;41.10;;;;;;5071233;28;19982;-79
2022/05/11 05:16:33;;;;;;;;;;;25.30;41.10;;;;;;5064959;28;20285;-79
2022/05/11 05:19:01;;;;;;;;;;;25.30;41.00;;;;;;5070071;28;19931;-79
2022/05/11 05:21:28;;;;;;;;;;;25.30;41.00;;;;;;5074134;28;19924;-79
2022/05/11 05:23:55;;;;;;;;;;;25.40;41.00;;;;;;5059757;28;19972;-78
2022/05/11 05:26:23;;;;;;;;;;;25.40;41.00;;;;;;5059561;28;19931;-78
2022/05/11 05:31:38;;;;;;;;;;;25.40;41.00;;;;;;5053331;28;19933;-74
2022/05/11 05:34:05;;;;;;;;;;;25.40;41.10;;;;;;5059822;28;19931;-73
2022/05/11 05:36:36;;;;;;;;;;;25.50;41.40;;;;;;5052679;28;20388;-71
2022/05/11 05:39:04;;;;;;;;;;;25.50;41.50;;;;;;5055299;28;20327;-77
2022/05/11 05:41:32;;;;;;;;;;;25.50;41.60;;;;;;5056040;28;20347;-75
2022/05/11 05:43:59;;;;;;;;;;;25.60;42.20;;;;;;5058212;28;19932;-73
2022/05/11 05:46:26;;;;;;;;;;;25.60;41.60;;;;;;5051250;28;20328;-75
2022/05/11 05:48:53;;;;;;;;;;;25.60;41.50;;;;;;5061018;28;19936;-77
2022/05/11 05:51:22;;;;;;;;;;;25.60;41.40;;;;;;5055787;28;19924;-75
2022/05/11 05:53:50;;;;;;;;;;;25.70;41.40;;;;;;5053825;28;19978;-73
2022/05/11 05:56:17;;;;;;;;;;;25.70;41.40;;;;;;5055461;28;19986;-74
2022/05/11 05:58:45;;;;;;;;;;;25.70;41.90;;;;;;5047976;28;19936;-73
2022/05/11 06:01:12;;;;;;;;;;;25.70;41.40;;;;;;5049500;28;19959;-74
2022/05/11 06:03:40;;;;;;;;;;;25.70;41.40;;;;;;5055414;28;19971;-74
2022/05/11 06:06:08;;;;;;;;;;;25.70;41.40;;;;;;5054025;28;20273;-73
2022/05/11 06:08:36;;;;;;;;;;;25.70;41.50;;;;;;5051180;28;19978;-72
2022/05/11 06:11:05;;;;;;;;;;;25.70;41.50;;;;;;5060010;28;19928;-71
2022/05/11 06:13:32;;;;;;;;;;;25.80;41.60;;;;;;5061248;28;20537;-70
2022/05/11 06:15:59;;;;;;;;;;;25.80;41.70;;;;;;5064942;28;19939;-70
2022/05/11 06:18:27;;;;;;;;;;;25.80;41.60;;;;;;5058207;28;19937;-68
2022/05/11 06:20:55;;;;;;;;;;;25.80;41.50;;;;;;5059701;28;20658;-77
2022/05/11 06:23:22;;;;;;;;;;;25.90;41.70;;;;;;5042790;28;19935;-75
2022/05/11 06:25:50;;;;;;;;;;;25.90;42.00;;;;;;5057456;28;19931;-81
2022/05/11 06:28:18;;;;;;;;;;;25.90;42.10;;;;;;5060147;28;19935;-81
2022/05/11 06:31:05;;;;;;;;;;;25.90;42.00;;;;;;5053175;28;19974;-78
2022/05/11 06:33:36;;;;;;;;;;;26.00;42.00;;;;;;5057946;28;19933;-80
2022/05/11 06:36:03;;;;;;;;;;;25.90;41.90;;;;;;5066118;28;19932;-78
2022/05/11 06:38:31;;;;;;;;;;;26.00;42.10;;;;;;5061677;28;19935;-83
2022/05/11 06:41:06;;;;;;;;;;;26.00;42.00;;;;;;5052534;28;19939;-71
2022/05/11 06:43:33;;;;;;;;;;;26.00;42.10;;;;;;5058936;28;20265;-72
2022/05/11 06:46:00;;;;;;;;;;;26.00;41.90;;;;;;5063518;28;19952;-75
2022/05/11 06:48:27;;;;;;;;;;;26.00;41.90;;;;;;5064530;28;19928;-74
2022/05/11 06:50:54;;;;;;;;;;;26.00;41.90;;;;;;5065367;28;19928;-79
2022/05/11 06:53:21;;;;;;;;;;;26.10;41.90;;;;;;5066847;28;19958;-77
2022/05/11 07:01:22;;;;;;;;;;;26.20;42.20;;;;;;5062299;28;20304;-78
2022/05/11 07:03:49;;;;;;;;;;;26.20;42.30;;;;;;5063768;28;20362;-81
2022/05/11 07:06:17;;;;;;;;;;;26.20;42.30;;;;;;5044484;28;19925;-77
2022/05/11 07:08:45;;;;;;;;;;;26.30;42.40;;;;;;5061714;28;20313;-78
2022/05/11 07:14:03;;;;;;;;;;;26.30;42.10;;;;;;5048639;28;20342;-74
2022/05/11 07:16:33;;;;;;;;;;;26.40;42.10;;;;;;5037464;28;19931;-73
2022/05/11 07:19:01;;;;;;;;;;;26.40;42.00;;;;;;5057391;28;20356;-76
2022/05/11 07:21:28;;;;;;;;;;;26.40;42.00;;;;;;5037025;28;19954;-79
2022/05/11 07:23:55;;;;;;;;;;;26.40;41.60;;;;;;5055437;28;19933;-77
2022/05/11 07:26:22;;;;;;;;;;;26.50;41.70;;;;;;5057489;28;19940;-78
2022/05/11 07:28:49;;;;;;;;;;;26.50;41.70;;;;;;5056359;28;19936;-78
2022/05/11 07:31:16;;;;;;;;;;;26.60;41.70;;;;;;5055464;28;19983;-81
2022/05/11 07:33:44;;;;;;;;;;;26.60;41.60;;;;;;5052951;28;19963;-72
2022/05/11 07:36:12;;;;;;;;;;;26.70;41.80;;;;;;5058224;28;19925;-81
2022/05/11 07:38:40;;;;;;;;;;;26.70;41.80;;;;;;5059270;28;20443;-73
2022/05/11 07:41:07;;;;;;;;;;;26.70;41.50;;;;;;5063211;28;19974;-74
2022/05/11 07:43:37;;;;;;;;;;;26.80;41.60;;;;;;5059150;28;19932;-77
2022/05/11 07:46:04;;;;;;;;;;;26.80;41.30;;;;;;5060301;28;19982;-80
2022/05/11 07:48:31;;;;;;;;;;;26.90;41.40;;;;;;5050747;28;19978;-76
2022/05/11 07:50:58;;;;;;;;;;;26.90;41.40;;;;;;5057681;28;20308;-77
2022/05/11 07:53:25;;;;;;;;;;;26.90;41.10;;;;;;5059190;28;19943;-81
2022/05/11 07:59:52;;;;;;;;;;;26.90;41.20;;;;;;5057608;28;19932;-76
2022/05/11 08:01:26;;;;;;;;;;;27.00;41.30;;;;;;5062253;28;19971;-80
2022/05/11 08:03:53;;;;;;;;;;;27.10;41.10;;;;;;5056160;28;20775;-71
2022/05/11 08:06:20;;;;;;;;;;;27.10;40.90;;;;;;5051045;28;19944;-72
2022/05/11 08:08:48;;;;;;;;;;;27.10;40.90;;;;;;5056358;28;20494;-72
2022/05/11 08:11:15;;;;;;;;;;;27.10;41.00;;;;;;5059096;28;20320;-73
2022/05/11 08:13:42;;;;;;;;;;;27.10;41.00;;;;;;5054254;28;20002;-72
2022/05/11 08:16:09;;;;;;;;;;;27.10;40.90;;;;;;5056204;28;19932;-76
2022/05/11 08:18:36;;;;;;;;;;;27.10;41.10;;;;;;5057594;28;20023;-70
2022/05/11 08:21:03;;;;;;;;;;;27.20;40.60;;;;;;5063431;28;20322;-73
2022/05/11 08:23:31;;;;;;;;;;;27.20;40.30;;;;;;5049170;28;20575;-70
2022/05/11 08:25:58;;;;;;;;;;;27.20;40.30;;;;;;5055268;28;19986;-72
2022/05/11 08:28:25;;;;;;;;;;;27.20;40.40;;;;;;5053080;28;19933;-72
2022/05/11 08:33:43;;;;;;;;;;;27.20;40.20;;;;;;5053428;28;19924;-75
2022/05/11 08:36:30;;;;;;;;;;;27.20;40.20;;;;;;5050628;28;19986;-77
2022/05/11 08:38:58;;;;;;;;;;;27.20;40.40;;;;;;5048067;28;20288;-72
2022/05/11 08:41:29;;;;;;;;;;;27.30;40.30;;;;;;5053001;28;19925;-76
2022/05/11 08:43:59;;;;;;;;;;;27.30;40.30;;;;;;5054549;28;19947;-75
2022/05/11 08:46:34;;;;;;;;;;;27.30;40.50;;;;;;5048246;28;19932;-68
2022/05/11 08:49:03;;;;;;;;;;;27.30;40.40;;;;;;5053105;28;19925;-74
2022/05/11 08:51:46;;;;;;;;;;;27.40;40.50;;;;;;5054141;28;19928;-72
2022/05/11 08:54:24;;;;;;;;;;;27.40;40.40;;;;;;5043625;28;20389;-73
2022/05/11 08:56:55;;;;;;;;;;;27.30;40.20;;;;;;5048636;28;19955;-69
2022/05/11 08:59:24;;;;;;;;;;;27.40;40.20;;;;;;5052119;28;19955;-73
2022/05/11 09:01:58;;;;;;;;;;;27.40;40.00;;;;;;5052332;28;20392;-71
2022/05/11 09:04:45;;;;;;;;;;;27.40;39.70;;;;;;5055638;28;19928;-74
2022/05/11 09:07:12;;;;;;;;;;;27.40;39.60;;;;;;5057112;28;19924;-78
2022/05/11 09:09:39;;;;;;;;;;;27.40;39.50;;;;;;5057476;28;19935;-75
2022/05/11 09:12:08;;;;;;;;;;;27.40;39.00;;;;;;5055471;28;19929;-75
2022/05/11 09:14:36;;;;;;;;;;;27.40;39.10;;;;;;5058157;28;19975;-73
2022/05/11 09:17:04;;;;;;;;;;;27.40;39.00;;;;;;5052845;28;19986;-71
2022/05/11 09:19:32;;;;;;;;;;;27.40;39.10;;;;;;5051156;28;19932;-67
2022/05/11 09:22:14;;;;;;;;;;;27.50;39.30;;;;;;5047786;28;19959;-72
2022/05/11 09:24:45;;;;;;;;;;;27.50;39.20;;;;;;5055991;28;19928;-71
2022/05/11 09:27:27;;;;;;;;;;;27.60;39.30;;;;;;5058508;28;19929;-77
2022/05/11 09:30:01;;;;;;;;;;;27.60;39.00;;;;;;5054993;28;19929;-74
2022/05/11 09:32:37;;;;;;;;;;;27.60;38.70;;;;;;5055250;28;19929;-71
2022/05/11 09:35:18;;;;;;;;;;;27.60;38.90;;;;;;5055592;28;20361;-73
2022/05/11 09:37:54;;;;;;;;;;;27.70;39.00;;;;;;5049744;28;20038;-73
2022/05/11 09:40:22;;;;;;;;;;;27.60;38.30;;;;;;5041038;28;19925;-73
2022/05/11 09:42:55;;;;;;;;;;;27.60;38.30;;;;;;5058815;28;20368;-73
2022/05/11 09:45:42;;;;;;;;;;;27.60;38.60;;;;;;5052103;28;20358;-71
2022/05/11 09:48:12;;;;;;;;;;;27.70;38.30;;;;;;5052948;28;20407;-73
2022/05/11 09:50:41;;;;;;;;;;;27.70;37.80;;;;;;5050583;28;19924;-69
2022/05/11 09:53:16;;;;;;;;;;;27.60;37.90;;;;;;5063430;28;19932;-72
2022/05/11 09:55:43;;;;;;;;;;;27.60;37.70;;;;;;5058368;28;19928;-74
2022/05/11 09:58:10;;;;;;;;;;;27.70;37.80;;;;;;5062130;28;19932;-72
2022/05/11 10:00:39;;;;;;;;;;;27.70;37.60;;;;;;5042550;28;19932;-71
2022/05/11 10:03:11;;;;;;;;;;;27.70;37.90;;;;;;5055661;28;19967;-72
2022/05/11 10:05:44;;;;;;;;;;;27.70;38.00;;;;;;5056649;28;20445;-72
2022/05/11 10:08:26;;;;;;;;;;;27.70;37.90;;;;;;5061041;28;19928;-73
2022/05/11 10:10:56;;;;;;;;;;;27.60;38.00;;;;;;5061460;28;19933;-73
2022/05/11 10:13:32;;;;;;;;;;;27.70;38.00;;;;;;5066277;28;19924;-74
2022/05/11 10:21:53;;;;;;;;;;;27.70;37.60;;;;;;5053194;28;19947;-70
2022/05/11 10:24:37;;;;;;;;;;;27.70;37.50;;;;;;5058261;28;20311;-73
2022/05/11 10:27:13;;;;;;;;;;;27.70;37.40;;;;;;5053583;28;19962;-72
2022/05/11 10:29:55;;;;;;;;;;;27.70;37.30;;;;;;5056145;28;19927;-76
2022/05/11 10:32:40;;;;;;;;;;;27.70;37.30;;;;;;5051913;28;19978;-71
2022/05/11 10:35:21;;;;;;;;;;;27.60;37.40;;;;;;5047418;28;21515;-76
2022/05/11 10:38:08;;;;;;;;;;;27.70;37.50;;;;;;5051792;28;20345;-72
2022/05/11 10:40:48;;;;;;;;;;;27.70;36.60;;;;;;5060039;28;20016;-72
2022/05/11 10:43:35;;;;;;;;;;;27.70;36.20;;;;;;5041481;28;19936;-78
2022/05/11 10:46:33;;;;;;;;;;;27.60;36.50;;;;;;5054282;28;20015;-75
2022/05/11 10:49:20;;;;;;;;;;;27.20;36.90;;;;;;5054650;28;20021;-77
2022/05/11 10:51:54;;;;;;;;;;;26.70;38.10;;;;;;5055203;28;19963;-75
2022/05/11 10:54:33;;;;;;;;;;;26.10;38.00;;;;;;5048748;28;20358;-78
2022/05/11 10:57:08;;;;;;;;;;;25.60;38.60;;;;;;5053940;28;19936;-76
2022/05/11 10:59:50;;;;;;;;;;;25.10;39.40;;;;;;5049664;28;19925;-70
2022/05/11 11:02:37;;;;;;;;;;;24.80;39.90;;;;;;5049824;28;19924;-71
2022/05/11 11:05:16;;;;;;;;;;;24.50;40.60;;;;;;5054119;28;21541;-76
2022/05/11 11:07:54;;;;;;;;;;;24.20;40.80;;;;;;5047306;28;19970;-76
2022/05/11 11:10:36;;;;;;;;;;;24.00;41.80;;;;;;5045426;28;19933;-73
2022/05/11 11:13:23;;;;;;;;;;;23.90;41.60;;;;;;5058630;28;19978;-74
2022/05/11 11:15:51;;;;;;;;;;;23.70;42.60;;;;;;5057463;28;19970;-73
2022/05/11 11:18:33;;;;;;;;;;;23.60;42.80;;;;;;5050604;28;20020;-73
2022/05/11 11:21:02;;;;;;;;;;;23.50;44.00;;;;;;5053851;28;19931;-73
2022/05/11 11:23:34;;;;;;;;;;;23.30;44.30;;;;;;5061532;28;20003;-77
2022/05/11 11:26:04;;;;;;;;;;;23.30;44.60;;;;;;5032765;28;19928;-74
2022/05/11 11:28:51;;;;;;;;;;;23.20;44.70;;;;;;5057650;28;19978;-68
2022/05/11 11:31:20;;;;;;;;;;;23.20;45.10;;;;;;5058253;28;19925;-72
2022/05/11 11:34:07;;;;;;;;;;;23.10;45.40;;;;;;5076656;28;19932;-73
2022/05/11 11:36:35;;;;;;;;;;;23.10;45.80;;;;;;5076704;28;19932;-72
2022/05/11 11:39:04;;;;;;;;;;;23.00;46.30;;;;;;5051359;28;20270;-72
2022/05/11 11:41:32;;;;;;;;;;;22.90;46.90;;;;;;5054731;28;20344;-70
2022/05/11 11:44:20;;;;;;;;;;;22.90;47.00;;;;;;5058799;28;20021;-77
2022/05/11 11:46:50;;;;;;;;;;;22.80;47.20;;;;;;5052830;28;19932;-74
2022/05/11 11:49:37;;;;;;;;;;;22.90;46.80;;;;;;5053674;28;19959;-74
2022/05/11 11:52:05;;;;;;;;;;;22.90;46.60;;;;;;5044465;28;19928;-75
2022/05/11 11:54:48;;;;;;;;;;;22.90;45.90;;;;;;5065426;28;19928;-72
2022/05/11 11:57:30;;;;;;;;;;;22.90;45.30;;;;;;5052709;28;19933;-68
2022/05/11 11:59:59;;;;;;;;;;;22.90;44.90;;;;;;5059735;28;19950;-74
2022/05/11 12:02:44;;;;;;;;;;;22.90;45.20;;;;;;5050319;28;19929;-75
2022/05/11 12:05:37;;;;;;;;;;;22.90;45.60;;;;;;5051105;28;19932;-70
2022/05/11 12:16:44;;;;;;;;;;;22.90;46.30;;;;;;5065050;28;20418;-68
2022/05/11 12:19:14;;;;;;;;;;;22.90;45.50;;;;;;5063517;28;19924;-73
2022/05/11 12:21:42;;;;;;;;;;;22.90;45.70;;;;;;5061523;28;19932;-76
2022/05/11 12:24:18;;;;;;;;;;;23.00;46.00;;;;;;5057327;28;19936;-74
2022/05/11 12:26:53;;;;;;;;;;;23.00;46.20;;;;;;5060692;28;20277;-75
2022/05/11 12:32:08;;;;;;;;;;;23.00;45.70;;;;;;5058961;28;19931;-73
2022/05/11 12:34:41;;;;;;;;;;;23.00;46.30;;;;;;5054907;28;20411;-71
2022/05/11 12:37:22;;;;;;;;;;;23.00;45.90;;;;;;5058884;28;19924;-74
2022/05/11 12:39:54;;;;;;;;;;;23.00;46.20;;;;;;5034708;28;19932;-73
2022/05/11 12:42:28;;;;;;;;;;;22.90;46.40;;;;;;5056303;28;19974;-75
2022/05/11 12:44:56;;;;;;;;;;;22.90;46.40;;;;;;5042150;28;19960;-73
2022/05/11 12:47:24;;;;;;;;;;;22.90;46.30;;;;;;5057012;28;19933;-74
2022/05/11 12:49:52;;;;;;;;;;;22.90;46.10;;;;;;5053404;28;19936;-74
2022/05/11 12:52:20;;;;;;;;;;;22.90;46.20;;;;;;5053892;28;19933;-68
2022/05/11 12:54:56;;;;;;;;;;;22.90;46.30;;;;;;5056075;28;19936;-69
2022/05/11 12:57:23;;;;;;;;;;;22.90;46.40;;;;;;5050551;28;19924;-70
2022/05/11 12:59:51;;;;;;;;;;;22.90;46.50;;;;;;5050065;28;20022;-71
2022/05/11 13:02:21;;;;;;;;;;;22.90;46.60;;;;;;5051055;28;20003;-69
2022/05/11 13:04:53;;;;;;;;;;;22.90;46.80;;;;;;5049322;28;20027;-75
2022/05/11 13:07:23;;;;;;;;;;;22.90;46.80;;;;;;5052441;28;20407;-70
2022/05/11 13:09:53;;;;;;;;;;;22.90;46.50;;;;;;5055819;28;19936;-72
2022/05/11 13:12:20;;;;;;;;;;;22.90;46.20;;;;;;5061994;28;19928;-72
2022/05/11 13:14:49;;;;;;;;;;;22.90;46.00;;;;;;5057626;28;19924;-67
2022/05/11 13:17:21;;;;;;;;;;;22.90;45.60;;;;;;5056656;28;19956;-71
2022/05/11 13:20:03;;;;;;;;;;;22.90;45.00;;;;;;5054353;28;19924;-68
2022/05/11 13:22:33;;;;;;;;;;;22.90;44.90;;;;;;5047199;28;19935;-72
2022/05/11 13:25:01;;;;;;;;;;;23.00;45.20;;;;;;5058907;28;19928;-73
2022/05/11 13:27:37;;;;;;;;;;;23.00;45.10;;;;;;5052215;28;19924;-71
2022/05/11 13:30:12;;;;;;;;;;;23.00;44.90;;;;;;5035202;28;20391;-74
2022/05/11 13:32:45;;;;;;;;;;;23.00;44.80;;;;;;5049028;28;19940;-78
2022/05/11 13:35:14;;;;;;;;;;;23.00;44.60;;;;;;5056099;28;20465;-72
2022/05/11 13:37:52;;;;;;;;;;;23.00;44.80;;;;;;5052241;28;19933;-70
2022/05/11 13:40:41;;;;;;;;;;;23.00;45.20;;;;;;5070503;28;20304;-74
2022/05/11 13:43:20;;;;;;;;;;;22.90;45.40;;;;;;5057008;28;19993;-75
2022/05/11 13:45:54;;;;;;;;;;;23.00;45.30;;;;;;5054037;28;19925;-70
2022/05/11 13:48:23;;;;;;;;;;;23.00;45.20;;;;;;5051616;28;19933;-69
2022/05/11 13:50:50;;;;;;;;;;;23.00;45.00;;;;;;5051673;28;19962;-68
2022/05/11 13:53:29;;;;;;;;;;;23.00;44.70;;;;;;5052048;28;19928;-69
2022/05/11 13:56:15;;;;;;;;;;;23.00;44.30;;;;;;5051675;28;19929;-72
2022/05/11 13:59:09;;;;;;;;;;;23.00;43.90;;;;;;5049777;28;19929;-68
2022/05/11 14:01:45;;;;;;;;;;;23.00;43.50;;;;;;5052290;28;19924;-68
2022/05/11 14:04:12;;;;;;;;;;;23.00;43.20;;;;;;5045118;28;19986;-68
2022/05/11 14:06:59;;;;;;;;;;;23.00;43.30;;;;;;5056375;28;19943;-68
2022/05/11 14:09:27;;;;;;;;;;;23.00;43.50;;;;;;5052250;28;19978;-68
2022/05/11 14:11:55;;;;;;;;;;;23.00;43.40;;;;;;5030382;28;19932;-68
2022/05/11 14:14:22;;;;;;;;;;;23.00;43.40;;;;;;5051645;28;21613;-69
2022/05/11 14:16:50;;;;;;;;;;;23.00;43.30;;;;;;5059343;28;19993;-70
2022/05/11 14:19:19;;;;;;;;;;;23.00;43.60;;;;;;5054541;28;19925;-72
2022/05/11 14:21:46;;;;;;;;;;;22.90;43.90;;;;;;5049009;28;20403;-70
2022/05/11 14:24:14;;;;;;;;;;;22.90;43.80;;;;;;5051853;28;19925;-63
2022/05/11 14:26:42;;;;;;;;;;;22.90;44.30;;;;;;5053096;28;19982;-67
2022/05/11 14:29:09;;;;;;;;;;;22.90;45.00;;;;;;5047615;28;19977;-66
2022/05/11 14:31:37;;;;;;;;;;;22.90;45.70;;;;;;5057650;28;19994;-66
2022/05/11 14:34:04;;;;;;;;;;;22.90;45.70;;;;;;5051398;28;19928;-66
2022/05/11 14:36:32;;;;;;;;;;;23.20;45.30;;;;;;5045239;28;19985;-65
2022/05/11 14:38:59;;;;;;;;;;;23.60;44.60;;;;;;5052355;28;19985;-65
2022/05/11 14:41:26;;;;;;;;;;;23.90;43.60;;;;;;5054606;28;20379;-66
2022/05/11 14:43:56;;;;;;;;;;;24.30;42.70;;;;;;5058661;28;19933;-71
2022/05/11 14:46:26;;;;;;;;;;;24.70;42.30;;;;;;5054202;28;19986;-67
2022/05/11 14:48:55;;;;;;;;;;;25.00;41.40;;;;;;5064523;28;19932;-67
2022/05/11 14:51:22;;;;;;;;;;;25.30;40.80;;;;;;5055954;28;19973;-68
2022/05/11 14:53:50;;;;;;;;;;;25.50;40.40;;;;;;5059934;28;19932;-69
2022/05/11 14:56:17;;;;;;;;;;;25.70;40.10;;;;;;5063362;28;19933;-66
2022/05/11 15:01:55;;;;;;;;;;;26.10;39.50;;;;;;5054155;28;19960;-68
2022/05/11 15:04:29;;;;;;;;;;;26.30;39.20;;;;;;5050979;28;19940;-67
2022/05/11 15:06:57;;;;;;;;;;;26.40;38.90;;;;;;5053256;28;19925;-67
2022/05/11 15:09:25;;;;;;;;;;;26.60;38.70;;;;;;5066125;28;19928;-67
2022/05/11 15:14:40;;;;;;;;;;;26.80;38.40;;;;;;5056895;28;20368;-67
2022/05/11 15:17:13;;;;;;;;;;;26.90;38.40;;;;;;5068673;28;20319;-67
2022/05/11 15:20:03;;;;;;;;;;;26.90;38.30;;;;;;5071673;28;19932;-66
2022/05/11 15:22:33;;;;;;;;;;;27.00;38.30;;;;;;5045188;28;19971;-66
2022/05/11 15:25:00;;;;;;;;;;;27.10;38.20;;;;;;5053476;28;19999;-67